Time;durP1;ratioP1;P1;durP2;ratioP2;P2;SDS_P1;SDS_P2;PMS_P1;PMS_P2;Temp;Humidity;BMP_temperature;BMP_pressure;BME280_temperature;BME280_humidity;BME280_pressure;Samples;Min_cycle;Max_cycle;Signal;HPM_P1;HPM_P2
2024/02/25 00:00:39;;;;;;;66.90;37.20;;;;;;;3.55;79.42;99813.02;130384;1261;108582;-80
2024/02/25 00:04:05;;;;;;;56.60;31.60;;;;;;;3.50;79.61;99814.92;130325;1259;110096;-81
2024/02/25 00:07:10;;;;;;;45.80;27.40;;;;;;;3.49;79.58;99810.83;130344;1264;108537;-79
2024/02/25 00:10:16;;;;;;;55.80;32.00;;;;;;;3.48;79.77;99814.45;130087;1259;108561;-82
2024/02/25 00:13:21;;;;;;;44.40;25.40;;;;;;;3.45;79.72;99813.05;130423;1264;106325;-79
2024/02/25 00:16:27;;;;;;;47.40;26.70;;;;;;;3.43;79.88;99815.17;130427;1265;107677;-82
2024/02/25 00:19:33;;;;;;;46.60;25.10;;;;;;;3.41;80.05;99819.20;130331;1259;107717;-80
2024/02/25 00:22:38;;;;;;;34.80;19.70;;;;;;;3.42;79.96;99825.05;130110;1259;108573;-80
2024/02/25 00:25:45;;;;;;;36.90;19.90;;;;;;;3.46;80.24;99815.80;130392;1259;107660;-79
2024/02/25 00:28:50;;;;;;;47.10;28.50;;;;;;;3.50;80.37;99811.47;130116;1259;106433;-79
2024/02/25 00:31:56;;;;;;;38.10;22.60;;;;;;;3.59;80.17;99816.58;130138;1259;108839;-79
2024/02/25 00:35:01;;;;;;;37.30;22.40;;;;;;;3.64;79.90;99814.48;130245;1265;107723;-80
2024/02/25 00:38:09;;;;;;;41.20;24.50;;;;;;;3.63;80.03;99806.94;130349;1265;107790;-80
2024/02/25 00:41:15;;;;;;;43.20;26.90;;;;;;;3.64;80.10;99807.77;130285;1259;108593;-79
2024/02/25 00:44:21;;;;;;;41.70;24.20;;;;;;;3.62;80.16;99807.73;130311;1259;106456;-81
2024/02/25 00:47:26;;;;;;;38.30;21.90;;;;;;;3.59;80.14;99805.17;130368;1265;107644;-79
2024/02/25 00:50:32;;;;;;;38.10;23.00;;;;;;;3.58;80.31;99803.64;130321;1259;108709;-79
2024/02/25 00:53:38;;;;;;;39.10;24.10;;;;;;;3.57;80.44;99808.34;130316;1259;107527;-79
2024/02/25 00:56:47;;;;;;;36.80;22.80;;;;;;;3.55;80.59;99805.80;130387;1259;107111;-79
2024/02/25 00:59:53;;;;;;;34.70;20.40;;;;;;;3.54;80.64;99807.46;130487;1265;106256;-79
2024/02/25 01:02:59;;;;;;;37.10;21.30;;;;;;;3.55;80.73;99808.64;130488;1263;106948;-79
2024/02/25 01:06:04;;;;;;;31.00;18.60;;;;;;;3.56;80.94;99806.64;130485;1263;107436;-79
2024/02/25 01:09:10;;;;;;;33.10;20.10;;;;;;;3.59;80.78;99803.24;130536;1259;106709;-79
2024/02/25 01:12:16;;;;;;;36.20;21.80;;;;;;;3.62;80.69;99803.38;130726;1260;106338;-80
2024/02/25 01:15:22;;;;;;;37.80;22.00;;;;;;;3.64;80.61;99805.80;130341;1264;108537;-79
2024/02/25 01:18:27;;;;;;;37.80;21.40;;;;;;;3.65;80.47;99808.70;130485;1263;107872;-82
2024/02/25 01:21:33;;;;;;;34.20;20.30;;;;;;;3.66;80.50;99810.39;130446;1263;107834;-79
2024/02/25 01:24:38;;;;;;;36.50;22.70;;;;;;;3.69;80.50;99811.02;130374;1259;106513;-80
2024/02/25 01:27:45;;;;;;;37.60;22.20;;;;;;;3.70;80.29;99806.09;130422;1259;141687;-79
2024/02/25 01:30:51;;;;;;;34.90;20.70;;;;;;;3.68;80.61;99801.63;130535;1260;107614;-79
2024/02/25 01:33:56;;;;;;;36.60;21.40;;;;;;;3.67;80.44;99804.35;130270;1259;107309;-79
2024/02/25 01:37:04;;;;;;;34.80;21.10;;;;;;;3.63;80.54;99808.33;130324;1265;106644;-79
2024/02/25 01:40:12;;;;;;;30.90;19.20;;;;;;;3.60;80.72;99800.17;130229;1265;106697;-81
2024/02/25 01:43:19;;;;;;;28.80;17.50;;;;;;;3.58;80.72;99799.28;130123;1274;107502;-79
2024/02/25 01:46:25;;;;;;;27.50;16.90;;;;;;;3.59;80.76;99795.69;130159;1265;107168;-79
2024/02/25 01:49:30;;;;;;;32.70;19.20;;;;;;;3.64;80.99;99790.53;130410;1259;106745;-80
2024/02/25 01:52:36;;;;;;;36.90;21.30;;;;;;;3.68;81.01;99790.16;130465;1265;107667;-78
2024/02/25 01:55:49;;;;;;;33.40;21.00;;;;;;;3.70;80.97;99784.73;130117;1259;107736;-80
2024/02/25 01:58:55;;;;;;;36.20;20.30;;;;;;;3.73;80.99;99779.94;130404;1282;107464;-79
2024/02/25 02:02:01;;;;;;;32.40;19.90;;;;;;;3.74;81.09;99781.08;130184;1263;107786;-79
2024/02/25 02:05:09;;;;;;;39.70;22.80;;;;;;;3.75;81.15;99774.34;130439;1265;107107;-79
2024/02/25 02:08:15;;;;;;;45.00;26.30;;;;;;;3.77;81.26;99772.64;130153;1259;107576;-79
2024/02/25 02:11:21;;;;;;;41.60;23.80;;;;;;;3.79;81.33;99770.50;130922;1263;107651;-79
2024/02/25 02:14:27;;;;;;;36.40;21.80;;;;;;;3.80;81.19;99761.12;130231;1263;107607;-78
2024/02/25 02:17:33;;;;;;;33.30;20.40;;;;;;;3.80;81.26;99760.23;130187;1259;107696;-80
2024/02/25 02:20:39;;;;;;;31.20;19.20;;;;;;;3.84;81.29;99758.84;130197;1262;107041;-79
2024/02/25 02:23:44;;;;;;;36.00;21.50;;;;;;;3.87;81.21;99755.11;130195;1265;107205;-79
2024/02/25 02:26:50;;;;;;;38.30;23.90;;;;;;;3.88;81.34;99752.71;130380;1263;106867;-79
2024/02/25 02:29:56;;;;;;;36.50;21.70;;;;;;;3.91;81.55;99749.52;130164;1263;106606;-80
2024/02/25 02:33:01;;;;;;;36.40;22.70;;;;;;;3.91;81.50;99752.63;130152;1265;106256;-80
2024/02/25 02:36:07;;;;;;;35.00;21.90;;;;;;;3.92;81.68;99754.15;130186;1273;106707;-83
2024/02/25 02:39:13;;;;;;;37.60;21.90;;;;;;;3.92;81.80;99760.50;130215;1264;107691;-80
2024/02/25 02:42:19;;;;;;;32.70;21.50;;;;;;;3.91;81.65;99759.66;130376;1262;107072;-79
2024/02/25 02:45:24;;;;;;;35.80;22.50;;;;;;;3.91;81.63;99758.23;130132;1264;106622;-79
2024/02/25 02:48:30;;;;;;;33.30;19.80;;;;;;;3.90;81.78;99762.54;130252;1264;107307;-78
2024/02/25 02:51:36;;;;;;;34.20;19.90;;;;;;;3.92;81.78;99765.77;130140;1265;107820;-78
2024/02/25 02:54:42;;;;;;;78.50;34.90;;;;;;;3.94;81.62;99767.06;130234;1260;108604;-79
2024/02/25 02:57:47;;;;;;;71.90;34.30;;;;;;;3.98;81.51;99767.23;130364;1264;107038;-79
2024/02/25 03:00:53;;;;;;;57.00;29.70;;;;;;;4.02;81.61;99771.52;130369;1259;106603;-79
2024/02/25 03:03:58;;;;;;;82.20;38.20;;;;;;;4.03;81.51;99773.73;130126;1259;106497;-79
2024/02/25 03:07:04;;;;;;;69.60;33.00;;;;;;;4.02;81.47;99775.35;130182;1263;107612;-79
2024/02/25 03:10:13;;;;;;;44.30;24.20;;;;;;;4.02;81.60;99771.30;130191;1259;106737;-80
2024/02/25 03:13:19;;;;;;;39.80;22.80;;;;;;;4.03;81.66;99771.59;130450;1260;107747;-80
2024/02/25 03:16:24;;;;;;;35.90;21.50;;;;;;;4.06;81.68;99772.08;130265;1259;107569;-80
2024/02/25 03:19:30;;;;;;;37.80;21.70;;;;;;;4.09;81.79;99774.65;130254;1267;107225;-79
2024/02/25 03:22:36;;;;;;;57.90;27.90;;;;;;;4.10;82.02;99775.78;130241;1263;108372;-78
2024/02/25 03:25:41;;;;;;;61.40;29.40;;;;;;;4.13;81.97;99779.79;130415;1265;106563;-78
2024/02/25 03:28:48;;;;;;;41.30;22.90;;;;;;;4.17;82.07;99779.98;130386;1266;107712;-81
2024/02/25 03:31:54;;;;;;;32.30;20.70;;;;;;;4.23;82.01;99780.88;130571;1266;108602;-79
2024/02/25 03:34:59;;;;;;;32.70;20.50;;;;;;;4.30;82.04;99778.23;130297;1263;107632;-81
2024/02/25 03:38:05;;;;;;;40.10;24.10;;;;;;;4.33;81.91;99777.93;130545;1260;106918;-79
2024/02/25 03:41:10;;;;;;;69.10;34.40;;;;;;;4.28;81.73;99776.93;130237;1265;106489;-80
2024/02/25 03:44:16;;;;;;;42.20;25.20;;;;;;;4.22;81.97;99779.76;130466;1264;107696;-80
2024/02/25 03:47:22;;;;;;;59.50;35.80;;;;;;;4.19;82.11;99778.42;130486;1265;106896;-79
2024/02/25 03:50:27;;;;;;;38.50;22.90;;;;;;;4.20;82.25;99774.13;130245;1263;107801;-80
2024/02/25 03:53:33;;;;;;;41.80;24.50;;;;;;;4.20;82.42;99769.88;130492;1265;106739;-79
2024/02/25 03:56:38;;;;;;;35.00;20.30;;;;;;;4.20;82.40;99770.46;130485;1260;106869;-79
2024/02/25 03:59:44;;;;;;;48.80;26.30;;;;;;;4.18;82.17;99768.83;130283;1265;107564;-79
2024/02/25 04:02:50;;;;;;;31.50;19.20;;;;;;;4.15;82.21;99767.32;130271;1259;106953;-79
2024/02/25 04:05:55;;;;;;;32.60;20.30;;;;;;;4.12;82.16;99761.89;130445;1265;108608;-80
2024/02/25 04:09:01;;;;;;;45.30;23.70;;;;;;;4.11;82.28;99757.09;130517;1265;107007;-80
2024/02/25 04:12:08;;;;;;;39.50;22.40;;;;;;;4.09;82.23;99748.06;130520;1272;107624;-82
2024/02/25 04:15:14;;;;;;;37.40;21.90;;;;;;;4.04;82.30;99746.20;130188;1265;106898;-79
2024/02/25 04:18:20;;;;;;;39.00;22.50;;;;;;;3.95;82.05;99747.42;130291;1274;109153;-84
2024/02/25 04:21:26;;;;;;;39.20;23.30;;;;;;;3.88;81.99;99746.58;130494;1263;106581;-79
2024/02/25 04:24:31;;;;;;;42.10;25.00;;;;;;;3.81;81.81;99744.13;130119;1265;108536;-79
2024/02/25 04:27:37;;;;;;;46.20;25.70;;;;;;;3.71;81.71;99742.09;130119;1263;107838;-80
2024/02/25 04:30:43;;;;;;;197.30;85.00;;;;;;;3.61;81.73;99738.91;130342;1263;106716;-79
2024/02/25 04:33:48;;;;;;;245.80;101.70;;;;;;;3.51;81.77;99737.02;130138;1265;107584;-79
2024/02/25 04:36:54;;;;;;;305.00;127.10;;;;;;;3.39;81.80;99738.27;130118;1273;108400;-79
2024/02/25 04:40:01;;;;;;;468.20;203.20;;;;;;;3.29;81.69;99739.23;130481;1265;108696;-79
2024/02/25 04:43:07;;;;;;;180.90;79.50;;;;;;;3.20;81.77;99739.24;130154;1259;107576;-80
2024/02/25 04:46:12;;;;;;;355.90;162.10;;;;;;;3.19;81.83;99738.09;130158;1265;106391;-78
2024/02/25 04:49:18;;;;;;;118.20;53.50;;;;;;;3.21;81.77;99742.14;130145;1273;107984;-79
2024/02/25 04:52:23;;;;;;;86.50;44.40;;;;;;;3.22;81.60;99741.23;130119;1265;108581;-81
2024/02/25 04:55:29;;;;;;;57.40;32.10;;;;;;;3.21;81.63;99739.35;130168;1263;106526;-79
2024/02/25 04:58:34;;;;;;;43.20;25.20;;;;;;;3.21;81.77;99738.94;130125;1265;106670;-81
2024/02/25 05:01:46;;;;;;;39.80;24.00;;;;;;;3.23;81.81;99737.77;130408;1265;107656;-81
2024/02/25 05:04:52;;;;;;;97.90;48.00;;;;;;;3.25;82.05;99745.05;130142;1265;108666;-78
2024/02/25 05:07:57;;;;;;;79.90;39.50;;;;;;;3.28;82.21;99748.13;130103;1265;106692;-81
2024/02/25 05:11:03;;;;;;;62.80;31.60;;;;;;;3.29;82.66;99741.67;130082;1265;108919;-82
2024/02/25 05:14:09;;;;;;;65.50;36.40;;;;;;;3.35;83.15;99737.77;130077;1263;106122;-78
2024/02/25 05:17:14;;;;;;;124.70;66.50;;;;;;;3.43;83.19;99737.48;130185;1265;107370;-79
2024/02/25 05:20:20;;;;;;;64.90;34.90;;;;;;;3.54;83.34;99740.98;130382;1261;107573;-81
2024/02/25 05:23:26;;;;;;;55.00;31.10;;;;;;;3.65;83.24;99745.92;130301;1263;107521;-79
2024/02/25 05:26:31;;;;;;;45.30;27.30;;;;;;;3.77;83.03;99748.28;130299;1265;107466;-78
2024/02/25 05:29:37;;;;;;;48.10;31.30;;;;;;;3.87;83.33;99751.92;130095;1265;108567;-77
2024/02/25 05:32:43;;;;;;;47.30;31.10;;;;;;;3.97;83.30;99762.42;130457;1272;106508;-78
2024/02/25 05:35:49;;;;;;;36.90;23.20;;;;;;;4.03;83.44;99758.58;130288;1265;106988;-80
2024/02/25 05:38:55;;;;;;;32.00;20.80;;;;;;;4.08;83.74;99757.45;130142;1265;106985;-78
2024/02/25 05:42:00;;;;;;;35.70;24.90;;;;;;;4.12;83.79;99752.18;130072;1265;108572;-78
2024/02/25 05:45:09;;;;;;;37.80;22.00;;;;;;;4.13;84.12;99749.46;130093;1265;108697;-78
2024/02/25 05:48:14;;;;;;;30.80;20.10;;;;;;;4.15;84.20;99752.86;130159;1263;107594;-78
2024/02/25 05:51:20;;;;;;;29.60;18.70;;;;;;;4.20;84.50;99751.94;130056;1265;107008;-79
2024/02/25 05:54:25;;;;;;;32.10;21.00;;;;;;;4.27;84.71;99737.23;130274;1263;107345;-79
2024/02/25 05:57:31;;;;;;;32.90;21.30;;;;;;;4.35;84.86;99733.26;130321;1273;106744;-79
2024/02/25 06:00:37;;;;;;;32.30;21.80;;;;;;;4.43;84.85;99726.27;130254;1273;106345;-78
2024/02/25 06:03:43;;;;;;;31.00;20.70;;;;;;;4.47;84.99;99729.98;130060;1264;107954;-78
2024/02/25 06:06:53;;;;;;;30.30;19.30;;;;;;;4.53;85.05;99733.23;130142;1274;106680;-78
2024/02/25 06:09:59;;;;;;;30.10;18.90;;;;;;;4.57;84.92;99741.31;130283;1263;106579;-79
2024/02/25 06:13:06;;;;;;;28.10;18.60;;;;;;;4.64;85.14;99741.11;130238;1265;106708;-79
2024/02/25 06:16:11;;;;;;;29.00;18.60;;;;;;;4.71;85.34;99734.53;130248;1272;106527;-79
2024/02/25 06:19:17;;;;;;;30.40;21.30;;;;;;;4.81;85.58;99733.73;130074;1273;108706;-78
2024/02/25 06:22:22;;;;;;;33.70;24.40;;;;;;;4.92;85.56;99731.20;130197;1263;106800;-78
2024/02/25 06:25:28;;;;;;;31.30;20.60;;;;;;;5.04;85.50;99732.25;130282;1264;108794;-79
2024/02/25 06:28:33;;;;;;;32.40;20.50;;;;;;;5.14;85.49;99721.00;130145;1276;105331;-80
2024/02/25 06:31:39;;;;;;;45.80;29.80;;;;;;;5.21;85.49;99721.88;130106;1273;109259;-80
2024/02/25 06:34:44;;;;;;;33.90;20.90;;;;;;;5.22;85.40;99731.45;130104;1273;107598;-79
2024/02/25 06:37:50;;;;;;;31.60;20.20;;;;;;;5.24;85.82;99747.16;130198;1273;109413;-78
2024/02/25 06:40:56;;;;;;;35.70;22.90;;;;;;;5.31;86.03;99746.70;130097;1265;107658;-77
2024/02/25 06:44:01;;;;;;;38.40;25.70;;;;;;;5.45;86.15;99743.23;130089;1266;108777;-78
2024/02/25 06:47:07;;;;;;;38.90;24.10;;;;;;;5.59;86.29;99753.52;130107;1263;107067;-78
2024/02/25 06:50:13;;;;;;;391.10;175.30;;;;;;;5.69;86.15;99775.52;130122;1263;108436;-76
2024/02/25 06:53:18;;;;;;;111.50;47.50;;;;;;;5.76;86.26;99775.45;130110;1265;108700;-78
2024/02/25 06:56:24;;;;;;;43.90;26.20;;;;;;;5.80;86.16;99746.58;130105;1271;107465;-79
2024/02/25 06:59:29;;;;;;;32.60;19.20;;;;;;;5.82;86.13;99750.64;130442;1263;106909;-78
2024/02/25 07:02:36;;;;;;;26.90;17.50;;;;;;;5.83;86.44;99749.84;130329;1264;107821;-78
2024/02/25 07:05:43;;;;;;;25.30;17.80;;;;;;;5.90;86.38;99741.45;130409;1263;108655;-78
2024/02/25 07:08:50;;;;;;;25.50;17.60;;;;;;;5.99;86.48;99749.29;130179;1265;107113;-78
2024/02/25 07:11:55;;;;;;;28.30;20.80;;;;;;;6.13;86.64;99745.61;130298;1265;107583;-79
2024/02/25 07:15:02;;;;;;;29.90;20.20;;;;;;;6.29;86.78;99727.75;130294;1265;106568;-78
2024/02/25 07:18:07;;;;;;;27.30;19.70;;;;;;;6.46;86.51;99726.77;130389;1263;108585;-78
2024/02/25 07:21:14;;;;;;;28.60;20.90;;;;;;;6.60;86.69;99728.66;130313;1263;107785;-77
2024/02/25 07:24:20;;;;;;;30.60;20.50;;;;;;;6.77;87.05;99721.11;130125;1270;106631;-79
2024/02/25 07:27:25;;;;;;;24.20;16.70;;;;;;;6.92;86.71;99717.92;130376;1263;106909;-78
2024/02/25 07:30:31;;;;;;;29.00;21.10;;;;;;;7.12;87.07;99721.36;130130;1264;107671;-77
2024/02/25 07:33:36;;;;;;;30.90;21.40;;;;;;;7.31;86.78;99712.33;130108;1265;106798;-78
2024/02/25 07:36:42;;;;;;;30.20;21.30;;;;;;;7.49;86.57;99707.64;130136;1261;105855;-77
2024/02/25 07:39:48;;;;;;;29.10;20.00;;;;;;;7.61;86.54;99700.09;130193;1272;106317;-80
2024/02/25 07:42:56;;;;;;;25.50;19.00;;;;;;;7.72;86.11;99695.70;130380;1265;106706;-80
2024/02/25 07:46:02;;;;;;;26.40;19.00;;;;;;;7.78;86.01;99695.04;130433;1263;108568;-81
2024/02/25 07:49:08;;;;;;;27.80;19.20;;;;;;;7.78;86.05;99692.48;130351;1263;107657;-80
2024/02/25 07:52:13;;;;;;;26.40;18.20;;;;;;;7.74;85.87;99688.36;130465;1263;108007;-81
2024/02/25 07:55:19;;;;;;;20.00;14.50;;;;;;;7.69;85.82;99685.16;130450;1263;106372;-82
2024/02/25 07:58:24;;;;;;;26.10;17.80;;;;;;;7.68;85.87;99685.09;130485;1264;107109;-81
2024/02/25 08:01:30;;;;;;;24.60;18.60;;;;;;;7.68;85.89;99682.42;130759;1261;107540;-79
2024/02/25 08:04:37;;;;;;;26.00;18.60;;;;;;;7.69;85.73;99676.52;130500;1264;109224;-81
2024/02/25 08:07:45;;;;;;;25.80;18.70;;;;;;;7.67;85.74;99676.10;130384;1264;108674;-80
2024/02/25 08:10:50;;;;;;;25.70;18.40;;;;;;;7.68;85.62;99677.66;130433;1267;107759;-81
2024/02/25 08:13:56;;;;;;;27.90;19.80;;;;;;;7.66;85.59;99682.23;130443;1264;108613;-82
2024/02/25 08:17:02;;;;;;;24.00;17.20;;;;;;;7.65;85.70;99681.28;130379;1261;108440;-80
2024/02/25 08:20:10;;;;;;;24.70;17.00;;;;;;;7.64;85.71;99678.41;130453;1273;107844;-80
2024/02/25 08:23:16;;;;;;;22.70;15.30;;;;;;;7.62;85.52;99671.17;130479;1260;106642;-78
2024/02/25 08:26:21;;;;;;;29.00;21.30;;;;;;;7.64;85.64;99670.09;130214;1260;109460;-79
2024/02/25 08:29:27;;;;;;;26.10;18.30;;;;;;;7.68;85.73;99665.23;130527;1261;107928;-82
2024/02/25 08:32:33;;;;;;;25.20;18.00;;;;;;;7.75;85.80;99663.87;130434;1263;107923;-81
2024/02/25 08:35:38;;;;;;;26.10;18.40;;;;;;;7.81;85.56;99663.10;130395;1260;108595;-81
2024/02/25 08:38:44;;;;;;;41.00;26.90;;;;;;;7.85;85.64;99660.42;130261;1264;107715;-82
2024/02/25 08:41:50;;;;;;;53.30;31.60;;;;;;;7.89;85.82;99662.69;130457;1267;108669;-83
2024/02/25 08:44:55;;;;;;;33.50;20.70;;;;;;;7.93;85.75;99657.52;130408;1273;108663;-80
2024/02/25 08:48:01;;;;;;;40.10;23.00;;;;;;;7.97;85.81;99652.18;130570;1263;106844;-84
2024/02/25 08:51:07;;;;;;;29.50;18.00;;;;;;;8.01;86.03;99639.77;130317;1264;106718;-83
2024/02/25 08:54:13;;;;;;;26.40;18.20;;;;;;;8.08;85.92;99636.51;130360;1261;108124;-80
2024/02/25 08:57:19;;;;;;;26.70;18.50;;;;;;;8.18;85.95;99629.19;130387;1263;108584;-82
2024/02/25 09:00:25;;;;;;;33.70;23.20;;;;;;;8.28;85.89;99622.56;130787;1263;106862;-80
2024/02/25 09:03:30;;;;;;;35.10;24.30;;;;;;;8.36;85.83;99616.95;130577;1261;107579;-79
2024/02/25 09:06:36;;;;;;;27.70;19.60;;;;;;;8.44;85.71;99614.26;130716;1260;106749;-85
2024/02/25 09:09:41;;;;;;;28.80;19.40;;;;;;;8.51;85.84;99608.23;130486;1263;109049;-85
2024/02/25 09:12:48;;;;;;;27.70;19.90;;;;;;;8.58;85.74;99607.66;130478;1263;107697;-84
2024/02/25 09:15:53;;;;;;;30.90;17.20;;;;;;;8.65;85.67;99605.55;130327;1261;108017;-82
2024/02/25 09:18:59;;;;;;;21.70;14.30;;;;;;;8.72;85.78;99603.79;130340;1267;107244;-83
2024/02/25 09:22:04;;;;;;;33.60;21.60;;;;;;;8.80;85.67;99602.02;130410;1264;107654;-79
2024/02/25 09:25:10;;;;;;;25.60;17.60;;;;;;;8.92;85.36;99605.80;130087;1263;106593;-79
2024/02/25 09:28:19;;;;;;;24.70;17.00;;;;;;;9.02;85.59;99600.45;130190;1272;108579;-80
2024/02/25 09:31:24;;;;;;;24.00;17.00;;;;;;;9.13;85.36;99597.98;130158;1264;107690;-79
2024/02/25 09:34:30;;;;;;;25.60;18.20;;;;;;;9.20;85.20;99595.98;130401;1272;106405;-80
2024/02/25 09:37:35;;;;;;;25.00;17.80;;;;;;;9.28;84.92;99596.27;130682;1260;105892;-82
2024/02/25 09:40:41;;;;;;;22.00;16.80;;;;;;;9.33;84.98;99596.80;130478;1264;108516;-83
2024/02/25 09:43:47;;;;;;;22.40;16.20;;;;;;;9.37;84.68;99595.20;130413;1263;106369;-82
2024/02/25 09:46:55;;;;;;;22.20;14.40;;;;;;;9.41;84.83;99592.91;130405;1263;107801;-83
2024/02/25 09:50:02;;;;;;;24.30;14.90;;;;;;;9.44;84.62;99583.34;130337;1273;108729;-83
2024/02/25 09:53:08;;;;;;;23.70;14.30;;;;;;;9.51;85.00;99580.63;130559;1261;106474;-83
2024/02/25 09:56:14;;;;;;;22.30;14.30;;;;;;;9.62;84.93;99573.66;130547;1263;107686;-81
2024/02/25 09:59:20;;;;;;;17.90;13.20;;;;;;;9.73;84.46;99573.89;130395;1260;108481;-80
2024/02/25 10:02:26;;;;;;;18.40;13.10;;;;;;;9.83;84.49;99571.77;130610;1260;107546;-81
2024/02/25 10:05:32;;;;;;;17.80;12.90;;;;;;;9.91;84.10;99565.58;130763;1259;106248;-83
2024/02/25 10:08:47;;;;;;;17.60;12.40;;;;;;;9.96;83.94;99560.41;130713;1264;107209;-84
2024/02/25 10:11:54;;;;;;;17.00;12.20;;;;;;;10.02;83.69;99555.81;130342;1263;106238;-82
2024/02/25 10:15:00;;;;;;;18.50;12.60;;;;;;;10.09;83.41;99550.81;130323;1265;108603;-82
2024/02/25 10:18:06;;;;;;;23.00;15.10;;;;;;;10.15;83.39;99544.08;130364;1264;108372;-82
2024/02/25 10:21:12;;;;;;;16.70;11.80;;;;;;;10.20;83.47;99539.48;130432;1263;106430;-84
2024/02/25 10:24:30;;;;;;;15.10;10.60;;;;;;;10.26;83.47;99529.84;130374;1264;106781;-81
2024/02/25 10:27:36;;;;;;;15.40;9.70;;;;;;;10.30;83.19;99523.11;130388;1264;106654;-89
2024/02/25 10:30:59;;;;;;;15.80;10.60;;;;;;;10.39;82.92;99521.92;130735;1260;107717;-84
2024/02/25 10:34:06;;;;;;;16.70;11.60;;;;;;;10.52;82.73;99516.29;130855;1261;107382;-81
2024/02/25 10:37:12;;;;;;;20.50;13.40;;;;;;;10.63;82.71;99513.59;130581;1260;108662;-82
2024/02/25 10:40:18;;;;;;;17.20;11.40;;;;;;;10.75;82.08;99513.02;130481;1264;107098;-80
2024/02/25 10:43:28;;;;;;;16.20;9.90;;;;;;;10.82;81.77;99512.02;130522;1264;108687;-81
2024/02/25 10:46:42;;;;;;;16.00;10.90;;;;;;;10.86;81.74;99505.55;130600;1261;106814;-80
2024/02/25 10:49:48;;;;;;;16.10;10.70;;;;;;;10.90;81.43;99502.61;130729;1261;107109;-81
2024/02/25 10:52:56;;;;;;;18.30;11.90;;;;;;;10.93;81.60;99500.63;130655;1264;107963;-83
2024/02/25 10:56:02;;;;;;;15.00;10.60;;;;;;;10.96;81.33;99496.54;130594;1259;107231;-81
2024/02/25 10:59:32;;;;;;;13.10;9.60;;;;;;;10.98;81.07;99493.10;130657;1261;108396;-80
2024/02/25 11:02:40;;;;;;;;;;;;;;;11.04;80.57;99488.20;130590;1263;106802;-83
2024/02/25 11:05:49;;;;;;;13.00;8.80;;;;;;;11.07;80.34;99481.44;130493;1259;107611;-82
2024/02/25 11:09:06;;;;;;;13.50;8.80;;;;;;;11.09;80.51;99476.02;130427;1260;107536;-82
2024/02/25 11:12:22;;;;;;;12.80;9.50;;;;;;;11.10;80.67;99475.22;130381;1259;107858;-82
2024/02/25 11:15:29;;;;;;;25.10;16.00;;;;;;;11.12;80.58;99482.80;130797;1264;106526;-81
2024/02/25 11:18:35;;;;;;;23.30;15.20;;;;;;;11.18;80.36;99481.10;130448;1259;106022;-84
2024/02/25 11:21:40;;;;;;;37.00;25.90;;;;;;;11.25;80.21;99474.02;130592;1261;108573;-78
2024/02/25 11:24:50;;;;;;;16.50;11.80;;;;;;;11.37;80.14;99465.52;130434;1261;108545;-80
2024/02/25 11:28:03;;;;;;;20.90;12.70;;;;;;;11.50;79.93;99458.20;130617;1263;108719;-79
2024/02/25 11:31:08;;;;;;;16.10;11.50;;;;;;;11.61;79.61;99455.83;130499;1260;107678;-82
2024/02/25 11:34:24;;;;;;;14.30;9.00;;;;;;;11.70;79.85;99452.82;130485;1262;107726;-82
2024/02/25 11:37:31;;;;;;;11.30;7.40;;;;;;;11.79;78.95;99452.07;130451;1263;107708;-82
2024/02/25 11:40:36;;;;;;;11.30;8.60;;;;;;;11.83;78.58;99446.63;130339;1259;107535;-83
2024/02/25 11:43:42;;;;;;;11.20;8.60;;;;;;;11.85;78.34;99444.84;130372;1263;107370;-83
2024/02/25 11:46:48;;;;;;;11.60;8.00;;;;;;;11.90;78.55;99442.77;130480;1259;107128;-84
2024/02/25 11:49:56;;;;;;;9.90;6.60;;;;;;;11.96;78.41;99439.91;130495;1263;106851;-85
2024/02/25 11:53:06;;;;;;;9.70;6.80;;;;;;;12.00;77.92;99436.98;130313;1264;109026;-81
2024/02/25 11:56:12;;;;;;;10.60;6.80;;;;;;;12.06;77.71;99431.66;130369;1264;107569;-81
2024/02/25 11:59:26;;;;;;;9.80;6.60;;;;;;;12.11;77.53;99424.12;130346;1264;106625;-83
2024/02/25 12:02:33;;;;;;;9.60;6.70;;;;;;;12.16;77.01;99423.30;130341;1264;107311;-80
2024/02/25 12:05:39;;;;;;;11.50;8.00;;;;;;;12.22;76.66;99421.03;130401;1264;107666;-82
2024/02/25 12:08:49;;;;;;;9.80;6.60;;;;;;;12.30;76.89;99422.05;130432;1261;108684;-83
2024/02/25 12:11:54;;;;;;;11.00;6.10;;;;;;;12.35;75.09;99413.60;130377;1264;107794;-82
2024/02/25 12:15:01;;;;;;;7.00;5.10;;;;;;;12.40;75.78;99406.89;130379;1264;107735;-84
2024/02/25 12:18:08;;;;;;;8.80;5.20;;;;;;;12.42;75.03;99397.80;130415;1261;106994;-84
2024/02/25 12:21:13;;;;;;;8.40;4.80;;;;;;;12.43;74.82;99393.70;130446;1263;106885;-83
2024/02/25 12:24:19;;;;;;;7.80;4.90;;;;;;;12.40;74.64;99391.43;130551;1265;108548;-82
2024/02/25 12:27:25;;;;;;;14.80;10.20;;;;;;;12.41;74.89;99382.89;130734;1259;106446;-82
2024/02/25 12:30:34;;;;;;;9.00;5.50;;;;;;;12.48;74.82;99375.45;130597;1260;107931;-83
2024/02/25 12:33:40;;;;;;;6.20;3.90;;;;;;;12.61;74.62;99372.19;130425;1264;108243;-84
2024/02/25 12:36:47;;;;;;;5.70;2.90;;;;;;;12.72;72.62;99375.82;130521;1261;108651;-83
2024/02/25 12:39:56;;;;;;;4.30;2.40;;;;;;;12.77;72.18;99372.58;130839;1264;107588;-81
2024/02/25 12:43:02;;;;;;;2.80;2.00;;;;;;;12.81;71.84;99370.73;130835;1261;106706;-81
2024/02/25 12:46:08;;;;;;;3.30;1.90;;;;;;;12.86;71.27;99373.70;130770;1259;108295;-81
2024/02/25 12:49:16;;;;;;;3.50;2.00;;;;;;;12.88;71.34;99371.05;130625;1264;108740;-80
2024/02/25 12:52:21;;;;;;;2.90;1.90;;;;;;;12.88;70.86;99369.65;130671;1259;108597;-81
2024/02/25 12:55:27;;;;;;;3.70;1.80;;;;;;;12.88;70.80;99370.55;130871;1260;107466;-82
2024/02/25 12:58:33;;;;;;;3.70;1.80;;;;;;;12.89;70.72;99370.02;130536;1264;108693;-82
2024/02/25 13:01:39;;;;;;;3.00;1.70;;;;;;;12.94;70.20;99364.39;130537;1264;108694;-82
2024/02/25 13:04:52;;;;;;;3.40;1.80;;;;;;;12.99;69.84;99356.49;130506;1262;107693;-83
2024/02/25 13:08:00;;;;;;;5.60;2.50;;;;;;;13.05;69.60;99358.65;130917;1259;108634;-86
2024/02/25 13:11:06;;;;;;;4.60;2.10;;;;;;;13.07;69.04;99355.17;131399;1263;106934;-84
2024/02/25 13:14:12;;;;;;;5.50;1.80;;;;;;;13.11;68.36;99355.05;130539;1263;108777;-84
2024/02/25 13:17:17;;;;;;;5.20;2.00;;;;;;;13.17;68.89;99351.18;130388;1263;108601;-80
2024/02/25 13:20:23;;;;;;;3.40;1.70;;;;;;;13.25;68.80;99347.02;130453;1259;108685;-80
2024/02/25 13:23:29;;;;;;;2.90;1.80;;;;;;;13.29;68.83;99346.40;130441;1263;107681;-81
2024/02/25 13:26:34;;;;;;;4.00;1.80;;;;;;;13.33;68.29;99344.35;130316;1263;216232;-80
2024/02/25 13:29:42;;;;;;;4.60;2.10;;;;;;;13.37;68.12;99344.66;130420;1259;106616;-80
2024/02/25 13:32:48;;;;;;;4.80;2.20;;;;;;;13.41;67.73;99342.80;130391;1263;106518;-81
2024/02/25 13:35:53;;;;;;;3.80;2.00;;;;;;;13.41;67.79;99344.00;130458;1263;108473;-80
2024/02/25 13:39:01;;;;;;;5.50;2.30;;;;;;;13.40;67.31;99342.47;130485;1260;106998;-79
2024/02/25 13:42:08;;;;;;;3.20;2.00;;;;;;;13.43;67.71;99340.76;130426;1259;108751;-81
2024/02/25 13:45:14;;;;;;;5.40;2.10;;;;;;;13.47;67.65;99339.23;130401;1263;107689;-81
2024/02/25 13:48:20;;;;;;;5.20;3.00;;;;;;;13.54;67.26;99337.35;130363;1262;107469;-81
2024/02/25 13:51:26;;;;;;;5.10;2.20;;;;;;;13.56;65.49;99333.98;130497;1260;108692;-81
2024/02/25 13:54:32;;;;;;;3.10;1.90;;;;;;;13.55;65.71;99331.30;130411;1262;108223;-81
2024/02/25 13:57:39;;;;;;;5.30;2.70;;;;;;;13.51;66.28;99329.61;130405;1259;108730;-80
2024/02/25 14:00:45;;;;;;;2.50;1.90;;;;;;;13.48;65.57;99327.18;130620;1264;108507;-81
2024/02/25 14:03:58;;;;;;;5.00;1.90;;;;;;;13.44;65.60;99329.84;130485;1261;106638;-83
2024/02/25 14:07:04;;;;;;;3.00;2.10;;;;;;;13.40;66.01;99329.48;131065;1264;109043;-82